Istanbul, Turkey
Current Conditions -  °F | °C
As of 3:20 AM on Friday 19 Dec 2014 (Local Time) from LTBA Reporting Station
Broken Clouds Broken Clouds  
Wind Chill: 50°   Ceiling: 2200
Heat Index: 50°   Visibility: 4mi
Dew Point: 46°   Wind: 7mph
Humidity: 87%   Direction: 360°N
Pressure: 30.15"   Gusts: NA
Location:  41.01°N, 28.95°E
Report Text: LTBA 190020Z 36006KT 330V080 6000 FEW008 BKN022 10/08 Q1021 NOSIG
Loading
Personal Weather Stations






























Interactive Weather Map New forecast layout! Learn more

10-Day Weather Forecast

Advertisements
Track Severe Weather on mobile